sensor_id;sensor_type;location;lat;lon;timestamp;pressure;altitude;pressure_sealevel;temperature;humidity
78383;BME280;67668;52.294;4.692;2023-06-01T00:03:22;102562.94;;;15.90;58.32
78383;BME280;67668;52.294;4.692;2023-06-01T00:05:48;102574.75;;;15.87;58.36
78383;BME280;67668;52.294;4.692;2023-06-01T00:08:13;102565.31;;;15.83;57.73
78383;BME280;67668;52.294;4.692;2023-06-01T00:10:39;102567.78;;;15.75;58.42
78383;BME280;67668;52.294;4.692;2023-06-01T00:13:04;102572.53;;;15.72;58.43
78383;BME280;67668;52.294;4.692;2023-06-01T00:15:30;102574.34;;;15.71;58.76
78383;BME280;67668;52.294;4.692;2023-06-01T00:17:55;102577.72;;;15.64;58.37
78383;BME280;67668;52.294;4.692;2023-06-01T00:20:21;102573.72;;;15.58;58.82
78383;BME280;67668;52.294;4.692;2023-06-01T00:22:48;102560.66;;;15.55;58.98
78383;BME280;67668;52.294;4.692;2023-06-01T00:25:14;102557.97;;;15.55;59.58
78383;BME280;67668;52.294;4.692;2023-06-01T00:27:40;102553.91;;;15.51;59.41
78383;BME280;67668;52.294;4.692;2023-06-01T00:30:06;102553.91;;;15.51;59.31
78383;BME280;67668;52.294;4.692;2023-06-01T00:32:31;102549.78;;;15.47;59.53
78383;BME280;67668;52.294;4.692;2023-06-01T00:34:56;102552.44;;;15.47;59.47
78383;BME280;67668;52.294;4.692;2023-06-01T00:37:22;102563.88;;;15.38;59.67
78383;BME280;67668;52.294;4.692;2023-06-01T00:39:47;102555.16;;;15.36;59.77
78383;BME280;67668;52.294;4.692;2023-06-01T00:42:13;102559.81;;;15.34;59.21
78383;BME280;67668;52.294;4.692;2023-06-01T00:44:39;102567.34;;;15.29;59.25
78383;BME280;67668;52.294;4.692;2023-06-01T00:47:05;102558.88;;;15.24;59.63
78383;BME280;67668;52.294;4.692;2023-06-01T00:49:31;102568.81;;;15.22;59.60
78383;BME280;67668;52.294;4.692;2023-06-01T00:51:56;102567.66;;;15.15;59.81
78383;BME280;67668;52.294;4.692;2023-06-01T00:54:21;102571.56;;;15.11;59.59
78383;BME280;67668;52.294;4.692;2023-06-01T00:56:47;102562.25;;;15.05;60.33
78383;BME280;67668;52.294;4.692;2023-06-01T00:59:12;102565.75;;;15.06;60.29
78383;BME280;67668;52.294;4.692;2023-06-01T01:01:38;102564.09;;;15.05;60.37
78383;BME280;67668;52.294;4.692;2023-06-01T01:04:04;102561.66;;;15.01;60.45
78383;BME280;67668;52.294;4.692;2023-06-01T01:12:07;102559.13;;;15.00;60.74
78383;BME280;67668;52.294;4.692;2023-06-01T01:14:59;102571.72;;;14.98;60.17
78383;BME280;67668;52.294;4.692;2023-06-01T01:17:32;102566.78;;;14.93;60.60
78383;BME280;67668;52.294;4.692;2023-06-01T01:20:08;102570.44;;;14.92;60.49
78383;BME280;67668;52.294;4.692;2023-06-01T01:30:46;102573.34;;;14.89;60.80
78383;BME280;67668;52.294;4.692;2023-06-01T01:33:13;102570.94;;;14.86;60.73
78383;BME280;67668;52.294;4.692;2023-06-01T01:35:38;102564.91;;;14.84;60.89
78383;BME280;67668;52.294;4.692;2023-06-01T01:38:04;102566.84;;;14.82;61.51
78383;BME280;67668;52.294;4.692;2023-06-01T01:40:30;102565.00;;;14.83;60.98
78383;BME280;67668;52.294;4.692;2023-06-01T01:42:55;102562.50;;;14.81;60.51
78383;BME280;67668;52.294;4.692;2023-06-01T01:45:23;102567.94;;;14.80;61.57
78383;BME280;67668;52.294;4.692;2023-06-01T01:50:23;102563.47;;;14.80;60.73
78383;BME280;67668;52.294;4.692;2023-06-01T01:52:51;102563.81;;;14.76;61.08
78383;BME280;67668;52.294;4.692;2023-06-01T01:55:20;102565.63;;;14.75;61.36
78383;BME280;67668;52.294;4.692;2023-06-01T01:57:50;102565.63;;;14.75;61.40
78383;BME280;67668;52.294;4.692;2023-06-01T02:00:16;102570.25;;;14.73;60.77
78383;BME280;67668;52.294;4.692;2023-06-01T02:02:44;102563.38;;;14.71;61.50
78383;BME280;67668;52.294;4.692;2023-06-01T02:05:10;102561.56;;;14.71;61.74
78383;BME280;67668;52.294;4.692;2023-06-01T02:07:36;102557.19;;;14.70;61.34
78383;BME280;67668;52.294;4.692;2023-06-01T02:10:01;102556.44;;;14.68;61.71
78383;BME280;67668;52.294;4.692;2023-06-01T02:12:27;102551.25;;;14.67;61.44
78383;BME280;67668;52.294;4.692;2023-06-01T02:14:52;102546.78;;;14.67;61.92
78383;BME280;67668;52.294;4.692;2023-06-01T02:17:18;102552.81;;;14.69;62.28
78383;BME280;67668;52.294;4.692;2023-06-01T02:19:43;102548.47;;;14.68;62.14
78383;BME280;67668;52.294;4.692;2023-06-01T02:22:09;102551.25;;;14.67;62.06
78383;BME280;67668;52.294;4.692;2023-06-01T02:24:35;102542.69;;;14.63;62.01
78383;BME280;67668;52.294;4.692;2023-06-01T02:27:00;102548.25;;;14.60;62.46
78383;BME280;67668;52.294;4.692;2023-06-01T02:29:26;102537.13;;;14.55;62.18
78383;BME280;67668;52.294;4.692;2023-06-01T02:31:51;102537.25;;;14.54;62.14
78383;BME280;67668;52.294;4.692;2023-06-01T02:34:18;102534.84;;;14.51;62.99
78383;BME280;67668;52.294;4.692;2023-06-01T02:36:43;102539.22;;;14.52;62.82
78383;BME280;67668;52.294;4.692;2023-06-01T02:39:09;102533.16;;;14.49;62.35
78383;BME280;67668;52.294;4.692;2023-06-01T02:41:34;102539.44;;;14.48;62.73
78383;BME280;67668;52.294;4.692;2023-06-01T02:44:00;102537.78;;;14.47;62.97
78383;BME280;67668;52.294;4.692;2023-06-01T02:46:25;102543.22;;;14.46;62.62
78383;BME280;67668;52.294;4.692;2023-06-01T02:48:51;102539.09;;;14.42;62.41
78383;BME280;67668;52.294;4.692;2023-06-01T02:51:18;102545.53;;;14.39;62.05
78383;BME280;67668;52.294;4.692;2023-06-01T02:53:44;102543.00;;;14.38;62.92
78383;BME280;67668;52.294;4.692;2023-06-01T02:56:12;102551.34;;;14.33;62.78
78383;BME280;67668;52.294;4.692;2023-06-01T02:58:37;102540.78;;;14.32;63.25
78383;BME280;67668;52.294;4.692;2023-06-01T03:01:03;102542.72;;;14.30;62.42
78383;BME280;67668;52.294;4.692;2023-06-01T03:03:28;102541.78;;;14.31;63.58
78383;BME280;67668;52.294;4.692;2023-06-01T03:05:54;102542.03;;;14.28;62.98
78383;BME280;67668;52.294;4.692;2023-06-01T03:08:20;102533.28;;;14.26;63.05
78383;BME280;67668;52.294;4.692;2023-06-01T03:10:46;102534.41;;;14.23;63.22
78383;BME280;67668;52.294;4.692;2023-06-01T03:13:12;102536.19;;;14.23;63.24
78383;BME280;67668;52.294;4.692;2023-06-01T03:15:38;102535.09;;;14.25;63.04
78383;BME280;67668;52.294;4.692;2023-06-01T03:18:06;102534.28;;;14.25;63.27
78383;BME280;67668;52.294;4.692;2023-06-01T03:20:32;102533.44;;;14.24;63.04
78383;BME280;67668;52.294;4.692;2023-06-01T03:22:58;102535.94;;;14.26;63.18
78383;BME280;67668;52.294;4.692;2023-06-01T03:25:23;102523.63;;;14.25;63.24
78383;BME280;67668;52.294;4.692;2023-06-01T03:27:50;102535.25;;;14.24;62.98
78383;BME280;67668;52.294;4.692;2023-06-01T03:30:16;102527.50;;;14.21;63.38
78383;BME280;67668;52.294;4.692;2023-06-01T03:32:43;102532.69;;;14.22;63.43
78383;BME280;67668;52.294;4.692;2023-06-01T03:35:10;102533.53;;;14.23;63.55
78383;BME280;67668;52.294;4.692;2023-06-01T03:37:40;102530.03;;;14.22;63.24
78383;BME280;67668;52.294;4.692;2023-06-01T03:40:09;102533.53;;;14.23;64.12
78383;BME280;67668;52.294;4.692;2023-06-01T03:42:42;102531.13;;;14.20;63.91
78383;BME280;67668;52.294;4.692;2023-06-01T03:45:08;102528.00;;;14.15;63.97
78383;BME280;67668;52.294;4.692;2023-06-01T03:47:34;102535.00;;;14.16;63.88
78383;BME280;67668;52.294;4.692;2023-06-01T03:50:00;102533.34;;;14.15;63.87
78383;BME280;67668;52.294;4.692;2023-06-01T03:52:29;102540.31;;;14.16;64.12
78383;BME280;67668;52.294;4.692;2023-06-01T03:54:55;102536.09;;;14.13;63.62
78383;BME280;67668;52.294;4.692;2023-06-01T03:57:22;102535.25;;;14.13;64.03
78383;BME280;67668;52.294;4.692;2023-06-01T03:59:48;102537.06;;;14.12;64.14
78383;BME280;67668;52.294;4.692;2023-06-01T04:02:13;102534.41;;;14.12;64.16
78383;BME280;67668;52.294;4.692;2023-06-01T04:04:39;102535.16;;;14.14;64.12
78383;BME280;67668;52.294;4.692;2023-06-01T04:07:10;102533.19;;;14.16;64.24
78383;BME280;67668;52.294;4.692;2023-06-01T04:09:39;102530.53;;;14.16;63.58
78383;BME280;67668;52.294;4.692;2023-06-01T04:12:06;102532.34;;;14.16;64.24
78383;BME280;67668;52.294;4.692;2023-06-01T04:14:32;102539.47;;;14.15;64.57
78383;BME280;67668;52.294;4.692;2023-06-01T04:16:57;102535.00;;;14.16;64.14
78383;BME280;67668;52.294;4.692;2023-06-01T04:19:23;102524.34;;;14.16;64.40
78383;BME280;67668;52.294;4.692;2023-06-01T04:21:48;102528.81;;;14.15;64.23
78383;BME280;67668;52.294;4.692;2023-06-01T04:24:15;102527.16;;;14.14;64.60
78383;BME280;67668;52.294;4.692;2023-06-01T04:26:41;102528.13;;;14.13;64.05
78383;BME280;67668;52.294;4.692;2023-06-01T04:29:06;102528.13;;;14.13;64.46
78383;BME280;67668;52.294;4.692;2023-06-01T04:31:34;102535.25;;;14.13;64.15
78383;BME280;67668;52.294;4.692;2023-06-01T04:33:59;102530.91;;;14.12;64.39
78383;BME280;67668;52.294;4.692;2023-06-01T04:36:28;102525.69;;;14.10;64.36
78383;BME280;67668;52.294;4.692;2023-06-01T04:38:54;102529.31;;;14.09;64.33
78383;BME280;67668;52.294;4.692;2023-06-01T04:41:21;102531.88;;;14.11;64.60
78383;BME280;67668;52.294;4.692;2023-06-01T04:43:53;102527.50;;;14.10;64.16
78383;BME280;67668;52.294;4.692;2023-06-01T04:46:22;102528.47;;;14.09;64.35
78383;BME280;67668;52.294;4.692;2023-06-01T04:48:51;102537.19;;;14.11;64.43
78383;BME280;67668;52.294;4.692;2023-06-01T04:51:17;102536.34;;;14.10;64.45
78383;BME280;67668;52.294;4.692;2023-06-01T04:53:48;102537.06;;;14.12;65.00
78383;BME280;67668;52.294;4.692;2023-06-01T04:56:18;102529.81;;;14.14;64.93
78383;BME280;67668;52.294;4.692;2023-06-01T04:58:47;102529.69;;;14.16;64.96
78383;BME280;67668;52.294;4.692;2023-06-01T05:01:16;102539.47;;;14.15;64.80
78383;BME280;67668;52.294;4.692;2023-06-01T05:03:42;102538.66;;;14.15;64.53
78383;BME280;67668;52.294;4.692;2023-06-01T05:06:09;102544.09;;;14.13;64.45
78383;BME280;67668;52.294;4.692;2023-06-01T05:08:37;102554.63;;;14.15;64.76
78383;BME280;67668;52.294;4.692;2023-06-01T05:11:02;102551.22;;;14.13;64.29
78383;BME280;67668;52.294;4.692;2023-06-01T05:13:28;102548.56;;;14.13;64.69
78383;BME280;67668;52.294;4.692;2023-06-01T05:15:53;102556.56;;;14.13;64.66
78383;BME280;67668;52.294;4.692;2023-06-01T05:18:18;102541.44;;;14.13;64.55
78383;BME280;67668;52.294;4.692;2023-06-01T05:20:44;102556.56;;;14.13;64.32
78383;BME280;67668;52.294;4.692;2023-06-01T05:23:10;102553.78;;;14.14;64.15
78383;BME280;67668;52.294;4.692;2023-06-01T05:25:36;102557.53;;;14.12;64.19
78383;BME280;67668;52.294;4.692;2023-06-01T05:28:01;102556.56;;;14.13;65.00
78383;BME280;67668;52.294;4.692;2023-06-01T05:30:27;102559.09;;;14.14;64.46
78383;BME280;67668;52.294;4.692;2023-06-01T05:32:52;102546.75;;;14.13;64.14
78383;BME280;67668;52.294;4.692;2023-06-01T05:35:17;102544.22;;;14.12;64.23
78383;BME280;67668;52.294;4.692;2023-06-01T05:37:43;102544.22;;;14.12;64.32
78383;BME280;67668;52.294;4.692;2023-06-01T05:40:09;102547.47;;;14.15;65.00
78383;BME280;67668;52.294;4.692;2023-06-01T05:42:34;102551.72;;;14.18;64.92
78383;BME280;67668;52.294;4.692;2023-06-01T05:45:00;102543.47;;;14.21;64.78
78383;BME280;67668;52.294;4.692;2023-06-01T05:47:25;102546.84;;;14.23;64.93
78383;BME280;67668;52.294;4.692;2023-06-01T05:49:50;102551.34;;;14.22;64.77
78383;BME280;67668;52.294;4.692;2023-06-01T05:52:16;102553.19;;;14.22;64.50
78383;BME280;67668;52.294;4.692;2023-06-01T05:54:41;102555.84;;;14.22;64.38
78383;BME280;67668;52.294;4.692;2023-06-01T05:57:07;102559.22;;;14.24;64.15
78383;BME280;67668;52.294;4.692;2023-06-01T05:59:33;102552.78;;;14.26;64.21
78383;BME280;67668;52.294;4.692;2023-06-01T06:01:58;102552.78;;;14.26;63.53
78383;BME280;67668;52.294;4.692;2023-06-01T06:04:24;102551.09;;;14.25;63.68
78383;BME280;67668;52.294;4.692;2023-06-01T06:06:49;102542.97;;;14.27;63.73
78383;BME280;67668;52.294;4.692;2023-06-01T06:09:15;102545.41;;;14.30;64.24
78383;BME280;67668;52.294;4.692;2023-06-01T06:11:50;102546.88;;;14.34;64.21
78383;BME280;67668;52.294;4.692;2023-06-01T06:14:15;102548.69;;;14.33;64.11
78383;BME280;67668;52.294;4.692;2023-06-01T06:16:42;102555.72;;;14.34;64.13
78383;BME280;67668;52.294;4.692;2023-06-01T06:19:07;102552.91;;;14.36;63.80
78383;BME280;67668;52.294;4.692;2023-06-01T06:21:33;102552.91;;;14.36;63.82
78383;BME280;67668;52.294;4.692;2023-06-01T06:23:58;102553.78;;;14.36;63.62
78383;BME280;67668;52.294;4.692;2023-06-01T06:26:27;102547.22;;;14.40;63.76
78383;BME280;67668;52.294;4.692;2023-06-01T06:28:52;102562.34;;;14.40;63.68
78383;BME280;67668;52.294;4.692;2023-06-01T06:31:18;102555.22;;;14.40;63.82
78383;BME280;67668;52.294;4.692;2023-06-01T06:33:43;102568.41;;;14.42;63.26
78383;BME280;67668;52.294;4.692;2023-06-01T06:36:08;102552.41;;;14.42;63.12
78383;BME280;67668;52.294;4.692;2023-06-01T06:38:34;102554.81;;;14.45;63.38
78383;BME280;67668;52.294;4.692;2023-06-01T06:40:59;102550.59;;;14.42;62.81
78383;BME280;67668;52.294;4.692;2023-06-01T06:43:25;102557.50;;;14.45;63.74
78383;BME280;67668;52.294;4.692;2023-06-01T06:45:50;102556.28;;;14.49;63.76
78383;BME280;67668;52.294;4.692;2023-06-01T06:48:15;102556.16;;;14.51;62.85
78383;BME280;67668;52.294;4.692;2023-06-01T06:50:41;102553.34;;;14.52;62.90
78383;BME280;67668;52.294;4.692;2023-06-01T06:53:09;102550.59;;;14.54;62.97
78383;BME280;67668;52.294;4.692;2023-06-01T06:55:35;102559.19;;;14.57;62.35
78383;BME280;67668;52.294;4.692;2023-06-01T06:58:00;102556.25;;;14.60;62.91
78383;BME280;67668;52.294;4.692;2023-06-01T07:00:26;102560.47;;;14.63;62.91
78383;BME280;67668;52.294;4.692;2023-06-01T07:02:52;102557.56;;;14.66;62.80
78383;BME280;67668;52.294;4.692;2023-06-01T07:05:18;102555.50;;;14.69;62.68
78383;BME280;67668;52.294;4.692;2023-06-01T07:07:43;102566.03;;;14.71;62.37
78383;BME280;67668;52.294;4.692;2023-06-01T07:10:09;102564.94;;;14.73;62.56
78383;BME280;67668;52.294;4.692;2023-06-01T07:12:35;102570.00;;;14.76;62.36
78383;BME280;67668;52.294;4.692;2023-06-01T07:15:01;102568.78;;;14.80;62.03
78383;BME280;67668;52.294;4.692;2023-06-01T07:17:27;102575.81;;;14.81;61.82
78383;BME280;67668;52.294;4.692;2023-06-01T07:19:52;102561.38;;;14.84;62.25
78383;BME280;67668;52.294;4.692;2023-06-01T07:22:18;102574.31;;;14.88;61.76
78383;BME280;67668;52.294;4.692;2023-06-01T07:24:46;102572.13;;;14.93;61.93
78383;BME280;67668;52.294;4.692;2023-06-01T07:27:13;102563.88;;;14.96;61.74
78383;BME280;67668;52.294;4.692;2023-06-01T07:29:38;102575.13;;;15.00;61.35
78383;BME280;67668;52.294;4.692;2023-06-01T07:32:05;102565.91;;;15.04;61.70
78383;BME280;67668;52.294;4.692;2023-06-01T07:34:30;102569.97;;;15.08;61.42
78383;BME280;67668;52.294;4.692;2023-06-01T07:36:58;102572.53;;;15.10;61.34
78383;BME280;67668;52.294;4.692;2023-06-01T07:39:24;102566.69;;;15.16;61.32
78383;BME280;67668;52.294;4.692;2023-06-01T07:41:50;102571.63;;;15.20;60.68
78383;BME280;67668;52.294;4.692;2023-06-01T07:44:18;102576.56;;;15.25;60.99
78383;BME280;67668;52.294;4.692;2023-06-01T07:46:44;102573.41;;;15.31;60.88
78383;BME280;67668;52.294;4.692;2023-06-01T07:49:09;102563.16;;;15.36;60.84
78383;BME280;67668;52.294;4.692;2023-06-01T07:51:42;102564.19;;;15.44;60.09
78383;BME280;67668;52.294;4.692;2023-06-01T07:54:08;102570.03;;;15.49;60.28
78383;BME280;67668;52.294;4.692;2023-06-01T07:56:33;102574.00;;;15.55;59.95
78383;BME280;67668;52.294;4.692;2023-06-01T07:58:59;102572.63;;;15.61;59.81
78383;BME280;67668;52.294;4.692;2023-06-01T08:01:25;102564.94;;;15.67;59.80
78383;BME280;67668;52.294;4.692;2023-06-01T08:03:50;102571.41;;;15.74;59.64
78383;BME280;67668;52.294;4.692;2023-06-01T08:06:17;102562.91;;;15.80;59.87
78383;BME280;67668;52.294;4.692;2023-06-01T08:08:43;102559.53;;;15.88;59.59
78383;BME280;67668;52.294;4.692;2023-06-01T08:11:08;102566.88;;;15.95;59.31
78383;BME280;67668;52.294;4.692;2023-06-01T08:13:34;102556.78;;;15.99;59.08
78383;BME280;67668;52.294;4.692;2023-06-01T08:16:02;102565.94;;;16.06;58.78
78383;BME280;67668;52.294;4.692;2023-06-01T08:18:27;102554.88;;;16.11;58.00
78383;BME280;67668;52.294;4.692;2023-06-01T08:20:54;102555.28;;;16.16;57.99
78383;BME280;67668;52.294;4.692;2023-06-01T08:23:20;102558.38;;;16.21;57.64
78383;BME280;67668;52.294;4.692;2023-06-01T08:25:49;102557.03;;;16.26;57.14
78383;BME280;67668;52.294;4.692;2023-06-01T08:28:16;102548.72;;;16.29;57.19
78383;BME280;67668;52.294;4.692;2023-06-01T08:30:41;102546.63;;;16.33;57.20
78383;BME280;67668;52.294;4.692;2023-06-01T08:33:07;102549.44;;;16.41;57.20
78383;BME280;67668;52.294;4.692;2023-06-01T08:35:32;102549.72;;;16.47;56.95
78383;BME280;67668;52.294;4.692;2023-06-01T08:38:01;102545.44;;;16.56;57.26
78383;BME280;67668;52.294;4.692;2023-06-01T08:40:28;102545.44;;;16.66;57.26
78383;BME280;67668;52.294;4.692;2023-06-01T08:42:59;102549.81;;;16.76;56.50
78383;BME280;67668;52.294;4.692;2023-06-01T08:45:31;102547.41;;;16.83;56.17
78383;BME280;67668;52.294;4.692;2023-06-01T08:47:58;102548.41;;;16.91;56.71
78383;BME280;67668;52.294;4.692;2023-06-01T08:50:26;102546.72;;;17.00;56.55
78383;BME280;67668;52.294;4.692;2023-06-01T08:52:56;102547.41;;;17.12;55.38
78383;BME280;67668;52.294;4.692;2023-06-01T08:55:22;102546.13;;;17.25;55.73
78383;BME280;67668;52.294;4.692;2023-06-01T08:57:49;102551.16;;;17.38;54.77
78383;BME280;67668;52.294;4.692;2023-06-01T09:00:15;102552.66;;;17.50;54.97
78383;BME280;67668;52.294;4.692;2023-06-01T09:02:41;102553.25;;;17.63;54.78
78383;BME280;67668;52.294;4.692;2023-06-01T09:05:08;102549.69;;;17.72;54.43
78383;BME280;67668;52.294;4.692;2023-06-01T09:07:33;102547.94;;;17.81;54.18
78383;BME280;67668;52.294;4.692;2023-06-01T09:09:59;102547.91;;;17.90;53.88
78383;BME280;67668;52.294;4.692;2023-06-01T09:12:27;102549.56;;;18.01;53.86
78383;BME280;67668;52.294;4.692;2023-06-01T09:15:10;102536.66;;;18.14;53.61
78383;BME280;67668;52.294;4.692;2023-06-01T09:17:39;102542.50;;;18.27;52.92
78383;BME280;67668;52.294;4.692;2023-06-01T09:20:05;102537.78;;;18.39;52.66
78383;BME280;67668;52.294;4.692;2023-06-01T09:22:42;102538.84;;;18.55;51.71
78383;BME280;67668;52.294;4.692;2023-06-01T09:25:08;102532.78;;;18.71;51.56
78383;BME280;67668;52.294;4.692;2023-06-01T09:27:48;102520.19;;;18.89;51.10
78383;BME280;67668;52.294;4.692;2023-06-01T09:30:18;102516.94;;;19.03;50.27
78383;BME280;67668;52.294;4.692;2023-06-01T09:32:44;102520.38;;;19.14;51.01
78383;BME280;67668;52.294;4.692;2023-06-01T09:35:14;102515.94;;;19.22;51.69
78383;BME280;67668;52.294;4.692;2023-06-01T09:37:56;102519.56;;;19.39;50.20
78383;BME280;67668;52.294;4.692;2023-06-01T09:40:21;102514.66;;;19.52;50.03
78383;BME280;67668;52.294;4.692;2023-06-01T09:42:47;102507.66;;;19.67;49.75
78383;BME280;67668;52.294;4.692;2023-06-01T09:45:19;102518.84;;;19.88;48.96
78383;BME280;67668;52.294;4.692;2023-06-01T09:47:45;102518.59;;;20.07;48.82
78383;BME280;67668;52.294;4.692;2023-06-01T09:50:11;102517.25;;;20.20;48.44
78383;BME280;67668;52.294;4.692;2023-06-01T09:52:36;102511.63;;;20.31;48.71
78383;BME280;67668;52.294;4.692;2023-06-01T09:55:06;102514.16;;;20.40;49.48
78383;BME280;67668;52.294;4.692;2023-06-01T09:57:33;102516.22;;;20.54;49.10
78383;BME280;67668;52.294;4.692;2023-06-01T10:00:01;102515.38;;;20.70;48.79
78383;BME280;67668;52.294;4.692;2023-06-01T10:02:32;102503.59;;;20.79;48.08
78383;BME280;67668;52.294;4.692;2023-06-01T10:04:57;102525.66;;;20.91;47.26
78383;BME280;67668;52.294;4.692;2023-06-01T10:07:26;102520.25;;;20.99;45.92
78383;BME280;67668;52.294;4.692;2023-06-01T10:09:57;102518.41;;;21.07;47.00
78383;BME280;67668;52.294;4.692;2023-06-01T10:12:26;102515.38;;;21.19;44.69
78383;BME280;67668;52.294;4.692;2023-06-01T10:14:52;102521.13;;;21.24;46.56
78383;BME280;67668;52.294;4.692;2023-06-01T10:17:18;102517.09;;;21.28;46.56
78383;BME280;67668;52.294;4.692;2023-06-01T10:19:44;102519.09;;;21.34;46.15
78383;BME280;67668;52.294;4.692;2023-06-01T10:22:11;102519.41;;;21.39;45.10
78383;BME280;67668;52.294;4.692;2023-06-01T10:24:38;102515.66;;;21.48;45.22
78383;BME280;67668;52.294;4.692;2023-06-01T10:27:24;102513.31;;;21.53;45.16
78383;BME280;67668;52.294;4.692;2023-06-01T10:29:54;102513.75;;;21.64;46.22
78383;BME280;67668;52.294;4.692;2023-06-01T10:35:07;102505.66;;;21.81;44.37
78383;BME280;67668;52.294;4.692;2023-06-01T10:37:33;102499.72;;;21.85;44.88
78383;BME280;67668;52.294;4.692;2023-06-01T10:42:43;102499.00;;;21.99;43.47
78383;BME280;67668;52.294;4.692;2023-06-01T10:45:36;102500.00;;;22.06;44.05
78383;BME280;67668;52.294;4.692;2023-06-01T10:48:07;102491.00;;;22.14;43.88
78383;BME280;67668;52.294;4.692;2023-06-01T10:50:34;102495.34;;;22.23;44.00
78383;BME280;67668;52.294;4.692;2023-06-01T10:53:27;102500.66;;;22.31;42.76
78383;BME280;67668;52.294;4.692;2023-06-01T10:56:32;102496.94;;;22.40;43.31
78383;BME280;67668;52.294;4.692;2023-06-01T11:01:29;102500.16;;;22.58;43.59
78383;BME280;67668;52.294;4.692;2023-06-01T11:03:54;102484.75;;;22.67;42.66
78383;BME280;67668;52.294;4.692;2023-06-01T11:06:30;102488.88;;;22.78;42.33
78383;BME280;67668;52.294;4.692;2023-06-01T11:09:01;102493.66;;;22.90;41.49
78383;BME280;67668;52.294;4.692;2023-06-01T11:14:14;102474.53;;;23.14;41.62
78383;BME280;67668;52.294;4.692;2023-06-01T11:16:41;102473.44;;;23.24;42.05
78383;BME280;67668;52.294;4.692;2023-06-01T11:19:08;102476.91;;;23.32;42.11
78383;BME280;67668;52.294;4.692;2023-06-01T11:21:39;102475.44;;;23.44;40.70
78383;BME280;67668;52.294;4.692;2023-06-01T11:24:15;102471.91;;;23.58;40.26
78383;BME280;67668;52.294;4.692;2023-06-01T11:26:49;102481.03;;;23.72;40.37
78383;BME280;67668;52.294;4.692;2023-06-01T11:29:17;102473.63;;;23.81;39.66
78383;BME280;67668;52.294;4.692;2023-06-01T11:31:52;102483.50;;;23.88;40.06
78383;BME280;67668;52.294;4.692;2023-06-01T11:34:19;102482.19;;;23.99;39.46
78383;BME280;67668;52.294;4.692;2023-06-01T11:36:49;102469.19;;;24.09;40.17
78383;BME280;67668;52.294;4.692;2023-06-01T11:39:26;102467.63;;;24.14;39.25
78383;BME280;67668;52.294;4.692;2023-06-01T11:42:14;102473.56;;;24.25;39.81
78383;BME280;67668;52.294;4.692;2023-06-01T11:44:45;102468.75;;;24.41;40.09
78383;BME280;67668;52.294;4.692;2023-06-01T11:47:12;102473.66;;;24.52;38.54
78383;BME280;67668;52.294;4.692;2023-06-01T11:49:46;102463.34;;;24.62;38.71
78383;BME280;67668;52.294;4.692;2023-06-01T11:52:13;102471.75;;;24.74;39.28
78383;BME280;67668;52.294;4.692;2023-06-01T11:54:38;102480.97;;;24.80;38.90
78383;BME280;67668;52.294;4.692;2023-06-01T11:57:04;102482.72;;;24.87;38.41
78383;BME280;67668;52.294;4.692;2023-06-01T11:59:39;102475.88;;;24.91;38.00
78383;BME280;67668;52.294;4.692;2023-06-01T12:02:26;102483.03;;;24.99;38.14
78383;BME280;67668;52.294;4.692;2023-06-01T12:04:56;102489.31;;;25.06;37.92
78383;BME280;67668;52.294;4.692;2023-06-01T12:07:22;102493.31;;;25.10;38.02
78383;BME280;67668;52.294;4.692;2023-06-01T12:09:50;102492.47;;;25.09;38.10
78383;BME280;67668;52.294;4.692;2023-06-01T12:12:16;102491.84;;;25.07;37.76
78383;BME280;67668;52.294;4.692;2023-06-01T12:14:42;102495.13;;;25.03;37.93
78383;BME280;67668;52.294;4.692;2023-06-01T12:17:08;102495.53;;;25.00;38.25
78383;BME280;67668;52.294;4.692;2023-06-01T12:19:44;102497.41;;;24.99;37.96
78383;BME280;67668;52.294;4.692;2023-06-01T12:22:11;102495.53;;;25.00;38.01
78383;BME280;67668;52.294;4.692;2023-06-01T12:24:36;102494.47;;;24.94;37.83
78383;BME280;67668;52.294;4.692;2023-06-01T12:27:12;102496.28;;;24.87;38.30
78383;BME280;67668;52.294;4.692;2023-06-01T12:29:41;102497.13;;;24.88;38.27
78383;BME280;67668;52.294;4.692;2023-06-01T12:32:08;102494.97;;;24.83;37.96
78383;BME280;67668;52.294;4.692;2023-06-01T12:34:35;102496.97;;;24.75;38.85
78383;BME280;67668;52.294;4.692;2023-06-01T12:37:30;102498.16;;;24.65;38.94
78383;BME280;67668;52.294;4.692;2023-06-01T12:39:56;102484.72;;;24.57;38.90
78383;BME280;67668;52.294;4.692;2023-06-01T12:42:38;102488.38;;;24.50;39.25
78383;BME280;67668;52.294;4.692;2023-06-01T12:45:05;102494.41;;;24.45;39.12
78383;BME280;67668;52.294;4.692;2023-06-01T12:47:41;102491.41;;;24.40;39.15
78383;BME280;67668;52.294;4.692;2023-06-01T12:50:11;102492.41;;;24.33;38.76
78383;BME280;67668;52.294;4.692;2023-06-01T12:52:38;102487.72;;;24.27;39.35
78383;BME280;67668;52.294;4.692;2023-06-01T12:55:04;102482.44;;;24.18;39.01
78383;BME280;67668;52.294;4.692;2023-06-01T12:57:32;102481.50;;;24.11;39.33
78383;BME280;67668;52.294;4.692;2023-06-01T12:59:57;102477.50;;;24.07;39.90
78383;BME280;67668;52.294;4.692;2023-06-01T13:02:23;102482.81;;;24.01;39.92
78383;BME280;67668;52.294;4.692;2023-06-01T13:04:49;102483.75;;;23.93;39.95
78383;BME280;67668;52.294;4.692;2023-06-01T13:07:15;102485.75;;;23.85;40.08
78383;BME280;67668;52.294;4.692;2023-06-01T13:09:40;102477.56;;;23.78;40.39
78383;BME280;67668;52.294;4.692;2023-06-01T13:12:07;102477.84;;;23.68;40.05
78383;BME280;67668;52.294;4.692;2023-06-01T13:14:32;102474.03;;;23.63;40.67
78383;BME280;67668;52.294;4.692;2023-06-01T13:16:58;102476.66;;;23.56;40.76
78383;BME280;67668;52.294;4.692;2023-06-01T13:19:23;102477.59;;;23.49;41.01
78383;BME280;67668;52.294;4.692;2023-06-01T13:21:51;102471.03;;;23.43;41.06